Time;durP1;ratioP1;P1;durP2;ratioP2;P2;SDS_P1;SDS_P2;PMS_P1;PMS_P2;Temp;Humidity;BMP_temperature;BMP_pressure;BME280_temperature;BME280_humidity;BME280_pressure;Samples;Min_cycle;Max_cycle;Signal;HPM_P1;HPM_P2
2021/07/29 00:00:35;;;;;;;3.63;2.78;;;18.40;85.00;;;;;;5072646;28;20041;-80
2021/07/29 00:03:00;;;;;;;5.18;2.58;;;18.40;84.90;;;;;;5072853;28;20500;-81
2021/07/29 00:05:27;;;;;;;5.63;2.90;;;18.40;84.90;;;;;;5054998;28;20029;-81
2021/07/29 00:07:53;;;;;;;3.35;2.50;;;18.40;84.90;;;;;;5072937;28;20354;-80
2021/07/29 00:10:19;;;;;;;7.75;2.90;;;18.40;85.00;;;;;;5071641;28;20094;-81
2021/07/29 00:12:45;;;;;;;6.90;2.80;;;18.30;85.00;;;;;;5063523;28;20091;-82
2021/07/29 00:15:16;;;;;;;3.70;2.47;;;18.40;85.40;;;;;;5055350;28;20033;-81
2021/07/29 00:20:17;;;;;;;4.25;2.40;;;18.40;85.30;;;;;;5056608;28;20025;-81
2021/07/29 00:22:44;;;;;;;7.53;2.72;;;18.30;85.40;;;;;;5055349;28;20027;-80
2021/07/29 00:25:13;;;;;;;3.85;2.83;;;18.30;85.10;;;;;;5056435;28;20032;-81
2021/07/29 00:27:40;;;;;;;5.32;2.45;;;18.30;85.30;;;;;;5056620;28;20446;-81
2021/07/29 00:30:07;;;;;;;4.72;2.38;;;18.30;84.90;;;;;;5057740;28;20100;-80
2021/07/29 00:32:33;;;;;;;4.55;2.58;;;18.30;85.20;;;;;;5070176;28;20025;-80
2021/07/29 00:34:59;;;;;;;6.03;2.75;;;18.30;85.20;;;;;;5056163;28;20028;-80
2021/07/29 00:37:24;;;;;;;4.70;2.42;;;18.30;85.10;;;;;;5055192;28;20025;-80
2021/07/29 00:39:50;;;;;;;7.32;2.72;;;18.30;85.00;;;;;;5072326;28;20481;-81
2021/07/29 00:42:16;;;;;;;7.25;2.70;;;18.20;85.00;;;;;;5075228;28;20056;-81
2021/07/29 00:44:41;;;;;;;5.78;2.40;;;18.20;84.70;;;;;;5076173;28;20073;-81
2021/07/29 00:47:07;;;;;;;5.32;2.55;;;18.20;84.60;;;;;;5074762;28;20035;-81
2021/07/29 00:49:33;;;;;;;8.65;2.90;;;18.20;84.50;;;;;;5075948;28;20111;-81
2021/07/29 00:51:59;;;;;;;8.23;2.30;;;18.20;84.40;;;;;;5075928;28;20393;-80
2021/07/29 00:54:28;;;;;;;4.28;2.38;;;18.10;84.60;;;;;;5076104;28;20033;-81
2021/07/29 00:56:55;;;;;;;4.72;2.05;;;18.10;84.60;;;;;;5058253;28;20085;-81
2021/07/29 00:59:21;;;;;;;3.45;2.10;;;18.10;84.40;;;;;;5075915;28;20103;-80
2021/07/29 01:01:47;;;;;;;5.85;2.03;;;18.10;84.00;;;;;;5075458;28;20128;-81
2021/07/29 01:04:12;;;;;;;5.68;2.35;;;18.10;84.20;;;;;;5075656;28;20035;-80
2021/07/29 01:06:38;;;;;;;8.98;2.40;;;18.10;84.20;;;;;;5075583;28;20020;-81
2021/07/29 01:09:09;;;;;;;3.25;1.90;;;18.00;84.20;;;;;;5091164;28;20031;-80
2021/07/29 01:11:39;;;;;;;4.15;2.15;;;18.00;84.10;;;;;;5084871;28;20033;-80
2021/07/29 01:14:06;;;;;;;5.10;2.05;;;17.90;84.10;;;;;;5074476;28;20123;-80
2021/07/29 01:16:32;;;;;;;5.07;2.30;;;17.80;84.00;;;;;;5075687;28;20056;-81
2021/07/29 01:18:59;;;;;;;5.68;2.50;;;17.80;84.20;;;;;;5074098;28;20050;-81
2021/07/29 01:21:26;;;;;;;5.53;2.50;;;17.80;85.10;;;;;;5090965;28;20063;-81
2021/07/29 01:23:52;;;;;;;6.70;2.58;;;17.70;84.40;;;;;;5075575;28;20032;-81
2021/07/29 01:26:17;;;;;;;6.15;2.22;;;17.70;84.40;;;;;;5075320;28;20024;-80
2021/07/29 01:28:43;;;;;;;5.25;2.40;;;17.60;84.50;;;;;;5074299;28;20028;-80
2021/07/29 01:31:09;;;;;;;7.38;2.60;;;17.60;84.80;;;;;;5057221;28;20025;-80
2021/07/29 01:33:38;;;;;;;4.30;2.30;;;17.60;84.90;;;;;;5075158;28;20500;-80
2021/07/29 01:36:04;;;;;;;5.05;2.80;;;17.60;85.10;;;;;;5073741;28;20032;-80
2021/07/29 01:38:30;;;;;;;7.25;2.72;;;17.50;85.00;;;;;;5075006;28;20029;-80
2021/07/29 01:40:55;;;;;;;8.13;2.63;;;17.50;85.50;;;;;;5074773;28;20111;-80
2021/07/29 01:43:21;;;;;;;4.97;2.20;;;17.50;85.70;;;;;;5074750;28;20554;-80
2021/07/29 01:45:47;;;;;;;3.72;2.50;;;17.50;85.70;;;;;;5054004;28;20029;-80
2021/07/29 01:48:13;;;;;;;6.43;2.25;;;17.50;85.60;;;;;;5074427;28;20028;-80
2021/07/29 01:50:38;;;;;;;5.13;2.30;;;17.40;85.60;;;;;;5073013;28;20085;-80
2021/07/29 01:53:04;;;;;;;6.20;2.28;;;17.40;85.70;;;;;;5074517;28;20513;-80
2021/07/29 01:55:30;;;;;;;6.63;2.47;;;17.40;85.70;;;;;;5074521;28;20037;-80
2021/07/29 01:57:55;;;;;;;5.97;2.53;;;17.40;85.80;;;;;;5074632;28;20039;-80
2021/07/29 02:00:22;;;;;;;5.72;2.72;;;17.40;85.90;;;;;;5074491;28;20206;-80
2021/07/29 02:02:49;;;;;;;8.35;2.67;;;17.40;86.00;;;;;;5073474;28;20024;-80
2021/07/29 02:05:14;;;;;;;9.00;3.00;;;17.40;86.20;;;;;;5074604;28;20039;-80
2021/07/29 02:07:40;;;;;;;6.85;2.67;;;17.40;86.00;;;;;;5074463;28;20024;-80
2021/07/29 02:10:06;;;;;;;8.65;2.80;;;17.40;85.80;;;;;;5074449;28;20753;-80
2021/07/29 02:12:33;;;;;;;6.95;3.00;;;17.40;85.70;;;;;;5074440;28;20081;-80
2021/07/29 02:15:00;;;;;;;5.43;3.28;;;17.40;85.50;;;;;;5072979;28;20504;-80
2021/07/29 02:17:25;;;;;;;4.97;3.05;;;17.40;85.40;;;;;;5074083;28;20423;-80
2021/07/29 02:19:51;;;;;;;8.43;3.00;;;17.40;85.50;;;;;;5073010;28;20032;-80
2021/07/29 02:22:17;;;;;;;5.57;3.17;;;17.30;85.50;;;;;;5074158;28;20039;-80
2021/07/29 02:24:43;;;;;;;6.53;2.80;;;17.30;85.50;;;;;;5074048;28;20029;-80
2021/07/29 02:27:08;;;;;;;6.20;2.90;;;17.30;85.80;;;;;;5074035;28;20031;-80
2021/07/29 02:29:34;;;;;;;7.28;2.80;;;17.30;85.70;;;;;;5072940;28;20487;-80
2021/07/29 02:32:00;;;;;;;7.28;2.83;;;17.20;85.80;;;;;;5073948;28;20061;-80
2021/07/29 02:34:25;;;;;;;7.13;2.92;;;17.20;85.90;;;;;;5072532;28;20031;-80
2021/07/29 02:36:51;;;;;;;11.82;3.53;;;17.20;85.90;;;;;;5073593;28;20043;-80
2021/07/29 02:39:16;;;;;;;8.73;2.85;;;17.30;85.70;;;;;;5074300;28;20481;-80
2021/07/29 02:41:42;;;;;;;7.15;3.17;;;17.30;85.50;;;;;;5074152;28;20067;-80
2021/07/29 02:44:08;;;;;;;5.95;3.05;;;17.20;85.40;;;;;;5072585;28;20029;-80
2021/07/29 02:46:34;;;;;;;6.72;2.67;;;17.20;85.30;;;;;;5072456;28;20081;-80
2021/07/29 02:49:00;;;;;;;13.20;3.30;;;17.20;85.30;;;;;;5073581;28;20489;-80
2021/07/29 02:51:25;;;;;;;7.70;2.80;;;17.30;85.50;;;;;;5073641;28;20021;-80
2021/07/29 02:53:51;;;;;;;5.28;2.70;;;17.20;85.10;;;;;;5073354;28;20020;-80
2021/07/29 02:56:17;;;;;;;10.65;3.05;;;17.20;85.00;;;;;;5073463;28;20074;-80
2021/07/29 02:58:44;;;;;;;11.15;2.65;;;17.20;85.10;;;;;;5073587;28;20037;-80
2021/07/29 03:01:10;;;;;;;6.78;2.58;;;17.20;84.90;;;;;;5073286;28;20040;-80
2021/07/29 03:03:35;;;;;;;11.00;2.88;;;17.20;85.00;;;;;;5073685;28;20107;-80
2021/07/29 03:06:01;;;;;;;16.70;3.35;;;17.10;84.30;;;;;;5073556;28;20474;-80
2021/07/29 03:08:27;;;;;;;10.85;3.05;;;17.10;84.60;;;;;;5073506;28;20039;-80
2021/07/29 03:10:53;;;;;;;5.90;2.30;;;17.10;84.50;;;;;;5073542;28;20033;-80
2021/07/29 03:13:19;;;;;;;7.65;2.47;;;17.10;84.80;;;;;;5072863;28;20032;-80
2021/07/29 03:15:45;;;;;;;7.75;2.67;;;17.10;85.00;;;;;;5073608;28;20028;-80
2021/07/29 03:18:11;;;;;;;7.18;2.65;;;17.10;84.90;;;;;;5073382;28;20025;-80
2021/07/29 03:20:36;;;;;;;11.45;2.85;;;17.00;85.10;;;;;;5073278;28;20032;-80
2021/07/29 03:23:02;;;;;;;6.93;2.47;;;17.00;85.20;;;;;;5073444;28;20028;-80
2021/07/29 03:25:29;;;;;;;5.55;2.67;;;17.00;85.30;;;;;;5072017;28;20469;-81
2021/07/29 03:27:54;;;;;;;8.55;2.63;;;17.00;85.40;;;;;;5072288;28;20438;-80
2021/07/29 03:30:20;;;;;;;8.50;2.67;;;17.00;84.70;;;;;;5073210;28;20107;-80
2021/07/29 03:32:45;;;;;;;11.90;2.40;;;17.00;84.70;;;;;;5072081;28;20029;-80
2021/07/29 03:35:11;;;;;;;8.32;2.85;;;17.00;84.90;;;;;;5055160;28;20370;-80
2021/07/29 03:37:36;;;;;;;6.55;2.58;;;17.00;84.80;;;;;;5073289;28;20029;-80
2021/07/29 03:40:06;;;;;;;8.68;2.88;;;17.00;84.80;;;;;;5072661;28;20029;-80
2021/07/29 03:42:33;;;;;;;10.32;2.40;;;17.00;84.80;;;;;;5073101;28;20040;-80
2021/07/29 03:44:59;;;;;;;7.30;2.67;;;16.90;84.80;;;;;;5073044;28;20029;-80
2021/07/29 03:47:25;;;;;;;6.75;2.30;;;16.90;84.90;;;;;;5071740;28;20029;-80
2021/07/29 03:49:51;;;;;;;9.00;2.33;;;16.90;85.00;;;;;;5074736;28;20393;-80
2021/07/29 03:52:17;;;;;;;9.60;2.45;;;16.90;85.20;;;;;;5075999;28;20024;-81
2021/07/29 03:54:43;;;;;;;9.18;2.70;;;16.90;85.20;;;;;;5076800;28;20131;-80
2021/07/29 03:57:09;;;;;;;11.32;2.80;;;16.90;85.00;;;;;;5059153;28;20028;-80
2021/07/29 03:59:38;;;;;;;5.95;2.40;;;16.90;85.30;;;;;;5076808;28;20469;-80
2021/07/29 04:02:10;;;;;;;11.52;2.85;;;16.80;85.20;;;;;;5076814;28;20085;-80
2021/07/29 04:04:38;;;;;;;7.90;3.00;;;16.90;85.40;;;;;;5076906;28;20028;-80
2021/07/29 04:07:04;;;;;;;7.20;2.75;;;16.80;86.20;;;;;;5077171;28;20031;-80
2021/07/29 04:09:29;;;;;;;9.77;2.70;;;16.90;85.60;;;;;;5076762;28;20028;-80
2021/07/29 04:11:55;;;;;;;7.32;2.80;;;16.80;85.30;;;;;;5075486;28;20033;-80
2021/07/29 04:14:20;;;;;;;9.73;2.22;;;16.80;85.20;;;;;;5092122;28;20016;-81
2021/07/29 04:16:46;;;;;;;7.00;2.60;;;16.80;85.20;;;;;;5075227;28;20117;-80
2021/07/29 04:19:12;;;;;;;4.32;2.20;;;16.80;85.20;;;;;;5077086;28;20029;-80
2021/07/29 04:21:37;;;;;;;8.75;2.75;;;16.80;85.40;;;;;;5075145;28;20040;-80
2021/07/29 04:24:03;;;;;;;12.40;2.40;;;16.80;85.10;;;;;;5075339;28;20385;-80
2021/07/29 04:26:29;;;;;;;10.02;3.08;;;16.80;85.20;;;;;;5075374;28;20025;-80
2021/07/29 04:28:54;;;;;;;12.15;2.65;;;16.80;85.40;;;;;;5076339;28;20041;-80
2021/07/29 04:31:20;;;;;;;6.53;2.72;;;16.80;85.20;;;;;;5074717;28;20025;-76
2021/07/29 04:33:45;;;;;;;10.77;2.50;;;16.80;85.30;;;;;;5074906;28;20489;-76
2021/07/29 04:36:11;;;;;;;8.25;2.20;;;16.80;85.30;;;;;;5067841;28;20033;-76
2021/07/29 04:38:37;;;;;;;7.55;2.58;;;16.70;85.30;;;;;;5075062;28;20149;-76
2021/07/29 04:41:06;;;;;;;8.40;2.47;;;16.80;85.40;;;;;;5074384;28;20054;-76
2021/07/29 04:43:32;;;;;;;10.73;2.47;;;16.80;85.40;;;;;;5057254;28;20028;-76
2021/07/29 04:46:02;;;;;;;10.52;2.60;;;16.80;85.60;;;;;;5068755;28;20028;-76
2021/07/29 04:48:29;;;;;;;5.80;2.45;;;16.80;85.50;;;;;;5075152;28;20555;-76
2021/07/29 04:50:55;;;;;;;9.55;2.30;;;16.80;85.30;;;;;;5075256;28;20101;-76
2021/07/29 04:53:20;;;;;;;8.57;2.90;;;16.90;85.30;;;;;;5074992;28;20607;-76
2021/07/29 04:55:46;;;;;;;12.82;2.33;;;16.90;85.20;;;;;;5075144;28;20041;-76
2021/07/29 04:58:11;;;;;;;7.55;2.60;;;16.90;85.00;;;;;;5073757;28;20073;-76
2021/07/29 05:00:37;;;;;;;6.13;2.08;;;16.90;84.90;;;;;;5064987;28;20095;-76
2021/07/29 05:03:02;;;;;;;7.30;2.60;;;16.90;84.90;;;;;;5065721;28;20485;-76
2021/07/29 05:05:28;;;;;;;8.00;2.50;;;17.00;84.80;;;;;;5073878;28;20040;-76
2021/07/29 05:07:54;;;;;;;7.15;2.75;;;17.00;84.70;;;;;;5069954;28;20568;-76
2021/07/29 05:10:19;;;;;;;6.13;2.10;;;17.00;84.60;;;;;;5073076;28;20389;-76
2021/07/29 05:12:45;;;;;;;6.07;2.45;;;17.00;84.60;;;;;;5073545;28;20043;-76
2021/07/29 05:15:11;;;;;;;7.80;2.33;;;17.00;84.40;;;;;;5073090;28;20024;-77
2021/07/29 05:17:36;;;;;;;9.68;2.30;;;17.00;84.30;;;;;;5075622;28;20031;-76
2021/07/29 05:20:02;;;;;;;7.45;2.38;;;16.90;84.20;;;;;;5073894;28;20132;-76
2021/07/29 05:22:28;;;;;;;7.00;2.17;;;17.00;83.90;;;;;;5073828;28;20071;-77
2021/07/29 05:24:54;;;;;;;8.52;2.33;;;17.00;83.90;;;;;;5072644;28;20028;-76
2021/07/29 05:27:19;;;;;;;10.10;2.53;;;17.00;83.80;;;;;;5072441;28;20040;-77
2021/07/29 05:29:45;;;;;;;7.63;2.28;;;17.00;83.70;;;;;;5072419;28;20610;-76
2021/07/29 05:32:10;;;;;;;10.15;2.28;;;17.10;83.70;;;;;;5073829;28;20043;-77
2021/07/29 05:34:36;;;;;;;11.05;2.20;;;17.10;83.70;;;;;;5072417;28;20108;-77
2021/07/29 05:37:03;;;;;;;9.40;2.42;;;17.10;83.60;;;;;;5073777;28;20560;-77
2021/07/29 05:39:32;;;;;;;5.65;2.53;;;17.10;83.70;;;;;;5052732;28;20024;-77
2021/07/29 05:41:58;;;;;;;10.32;2.33;;;17.20;83.30;;;;;;5071774;28;20024;-77
2021/07/29 05:44:23;;;;;;;6.65;2.45;;;17.20;83.40;;;;;;5089452;28;20031;-77
2021/07/29 05:46:49;;;;;;;12.07;2.70;;;17.30;83.30;;;;;;5072723;28;20025;-78
2021/07/29 05:49:15;;;;;;;10.27;2.08;;;17.30;82.90;;;;;;5073711;28;20558;-77
2021/07/29 05:51:58;;;;;;;15.85;2.63;;;17.30;82.90;;;;;;5072207;28;20024;-77
2021/07/29 05:54:24;;;;;;;10.52;2.90;;;17.30;82.30;;;;;;5055494;28;20055;-78
2021/07/29 05:56:49;;;;;;;8.52;2.60;;;17.40;82.60;;;;;;5072038;28;20479;-77
2021/07/29 05:59:15;;;;;;;14.07;2.25;;;17.40;82.00;;;;;;5073204;28;20033;-77
2021/07/29 06:01:41;;;;;;;9.73;2.10;;;17.40;82.10;;;;;;5034284;28;1128420;-77
2021/07/29 06:04:06;;;;;;;9.10;1.98;;;17.40;82.20;;;;;;5071968;28;20024;-77
2021/07/29 06:06:33;;;;;;;9.15;2.42;;;17.50;82.60;;;;;;5072530;28;20024;-77
2021/07/29 06:08:59;;;;;;;9.38;2.45;;;17.50;82.40;;;;;;5054880;28;20021;-77
2021/07/29 06:11:25;;;;;;;8.45;2.20;;;17.50;83.00;;;;;;5080050;28;20036;-77
2021/07/29 06:13:51;;;;;;;8.32;2.30;;;17.60;82.20;;;;;;5073877;28;20474;-77
2021/07/29 06:16:18;;;;;;;11.15;2.47;;;17.60;82.20;;;;;;5073817;28;20032;-76
2021/07/29 06:19:03;;;;;;;15.43;2.90;;;17.70;82.20;;;;;;5073882;28;20024;-77
2021/07/29 06:21:29;;;;;;;13.35;2.30;;;17.70;81.30;;;;;;5072412;28;20031;-77
2021/07/29 06:23:56;;;;;;;8.50;1.95;;;17.80;81.00;;;;;;5073705;28;20115;-77
2021/07/29 06:26:22;;;;;;;8.98;2.42;;;17.80;80.70;;;;;;5072225;28;20039;-77
2021/07/29 06:28:47;;;;;;;9.73;2.42;;;17.70;80.00;;;;;;5073832;28;20032;-77
2021/07/29 06:31:13;;;;;;;9.23;2.35;;;17.80;80.30;;;;;;5073175;28;20105;-77
2021/07/29 06:33:39;;;;;;;10.07;2.40;;;17.90;80.30;;;;;;5073514;28;20857;-77
2021/07/29 06:36:04;;;;;;;9.30;1.92;;;17.90;80.30;;;;;;5073758;28;20029;-77
2021/07/29 06:38:30;;;;;;;9.00;2.38;;;17.90;80.10;;;;;;5073378;28;20032;-78
2021/07/29 06:40:56;;;;;;;12.98;2.80;;;18.00;80.20;;;;;;5073005;28;20040;-78
2021/07/29 06:43:21;;;;;;;7.22;2.28;;;18.00;79.60;;;;;;5072957;28;20036;-78
2021/07/29 06:45:47;;;;;;;9.30;1.90;;;18.00;79.70;;;;;;5072779;28;20029;-78
2021/07/29 06:48:13;;;;;;;8.70;2.17;;;18.00;79.80;;;;;;5073985;28;20092;-78
2021/07/29 06:50:38;;;;;;;13.05;2.65;;;18.20;80.00;;;;;;5073770;28;20032;-78
2021/07/29 06:53:04;;;;;;;9.68;2.20;;;18.20;79.60;;;;;;5073907;28;20024;-79
2021/07/29 06:55:29;;;;;;;11.90;2.13;;;18.40;78.80;;;;;;5073402;28;20115;-78
2021/07/29 06:57:56;;;;;;;8.38;2.40;;;18.40;78.30;;;;;;5073691;28;20406;-79
2021/07/29 07:00:21;;;;;;;6.47;2.10;;;18.40;78.80;;;;;;5072421;28;20067;-78
2021/07/29 07:02:47;;;;;;;8.35;2.10;;;18.30;77.70;;;;;;5073199;28;20033;-78
2021/07/29 07:05:12;;;;;;;13.45;2.45;;;18.40;78.20;;;;;;5072556;28;20036;-78
2021/07/29 07:07:38;;;;;;;10.25;2.25;;;18.50;77.90;;;;;;5078644;28;20037;-78
2021/07/29 07:10:04;;;;;;;11.20;2.60;;;18.60;76.90;;;;;;5072229;28;20059;-78
2021/07/29 07:12:29;;;;;;;14.77;2.58;;;18.60;76.90;;;;;;5072395;28;20742;-78
2021/07/29 07:14:55;;;;;;;7.05;2.20;;;18.70;76.60;;;;;;5073555;28;20123;-78
2021/07/29 07:17:21;;;;;;;10.02;2.88;;;18.80;76.10;;;;;;5073365;28;20109;-78
2021/07/29 07:19:51;;;;;;;10.95;2.72;;;19.00;75.40;;;;;;5072257;28;20040;-78
2021/07/29 07:22:17;;;;;;;10.18;2.28;;;19.10;74.70;;;;;;5072431;28;20025;-78
2021/07/29 07:24:42;;;;;;;11.70;2.55;;;19.20;73.60;;;;;;5073382;28;20036;-78
2021/07/29 07:27:08;;;;;;;18.48;3.25;;;19.10;73.60;;;;;;5076047;28;20389;-78
2021/07/29 07:29:34;;;;;;;8.13;2.35;;;19.30;73.70;;;;;;5072366;28;20024;-78
2021/07/29 07:32:00;;;;;;;8.77;2.50;;;19.40;74.00;;;;;;5072905;28;20025;-78
2021/07/29 07:34:26;;;;;;;10.73;2.17;;;19.50;73.30;;;;;;5072251;28;20039;-78
2021/07/29 07:36:52;;;;;;;10.60;2.70;;;19.60;72.80;;;;;;5072710;28;20029;-79
2021/07/29 07:39:17;;;;;;;10.77;2.38;;;19.70;72.60;;;;;;5072552;28;20408;-78
2021/07/29 07:41:43;;;;;;;8.98;2.70;;;19.80;72.30;;;;;;5072876;28;20047;-78
2021/07/29 07:44:09;;;;;;;10.38;2.50;;;19.90;71.60;;;;;;5072883;28;20031;-78
2021/07/29 07:46:34;;;;;;;10.52;2.28;;;19.90;70.30;;;;;;5073046;28;20108;-78
2021/07/29 07:49:00;;;;;;;10.40;2.45;;;19.90;70.10;;;;;;5073034;28;20029;-78
2021/07/29 07:51:28;;;;;;;10.23;2.55;;;19.90;69.90;;;;;;5073230;28;20112;-78
2021/07/29 07:53:54;;;;;;;8.77;2.43;;;19.90;70.40;;;;;;5073044;28;20028;-78
2021/07/29 07:56:19;;;;;;;11.52;2.80;;;20.00;70.50;;;;;;5073002;28;20035;-78
2021/07/29 07:58:45;;;;;;;10.95;2.38;;;20.00;69.50;;;;;;5071742;28;20086;-79
2021/07/29 08:01:10;;;;;;;9.13;2.30;;;20.10;70.20;;;;;;5072742;28;20128;-79
2021/07/29 08:03:36;;;;;;;14.48;2.70;;;20.20;70.10;;;;;;5072931;28;20024;-79
2021/07/29 08:06:03;;;;;;;9.52;2.05;;;20.10;69.60;;;;;;5073037;28;20094;-79
2021/07/29 08:08:28;;;;;;;9.93;2.30;;;20.00;69.70;;;;;;5073022;28;20017;-79
2021/07/29 08:10:54;;;;;;;10.38;2.10;;;20.10;68.80;;;;;;5073092;28;20508;-79
2021/07/29 08:13:20;;;;;;;9.20;2.10;;;20.10;66.70;;;;;;5073292;28;20108;-79
2021/07/29 08:15:46;;;;;;;9.40;2.05;;;20.00;67.30;;;;;;5072956;28;20093;-79
2021/07/29 08:18:15;;;;;;;10.80;2.65;;;19.90;67.80;;;;;;5071683;28;20025;-79
2021/07/29 08:20:44;;;;;;;6.43;1.90;;;19.80;67.40;;;;;;5071814;28;20027;-79
2021/07/29 08:23:10;;;;;;;7.00;2.42;;;19.80;69.00;;;;;;5071599;28;20534;-79
2021/07/29 08:25:36;;;;;;;6.63;1.65;;;20.10;68.40;;;;;;5071537;28;20115;-79
2021/07/29 08:28:02;;;;;;;10.63;2.40;;;20.40;68.20;;;;;;5072734;28;20743;-79
2021/07/29 08:30:28;;;;;;;7.60;1.95;;;20.60;67.10;;;;;;5072692;28;20052;-79
2021/07/29 08:32:53;;;;;;;11.13;2.33;;;20.50;66.30;;;;;;5072434;28;20110;-79
2021/07/29 08:35:19;;;;;;;7.65;1.88;;;20.40;66.30;;;;;;5074484;28;20021;-79
2021/07/29 08:37:48;;;;;;;7.25;1.88;;;20.30;66.00;;;;;;5076361;28;20081;-79
2021/07/29 08:40:18;;;;;;;6.68;1.90;;;20.20;65.50;;;;;;5076036;28;20047;-79
2021/07/29 08:42:45;;;;;;;7.18;2.17;;;20.10;65.80;;;;;;5076616;28;20033;-79
2021/07/29 08:45:11;;;;;;;9.40;2.33;;;20.20;65.60;;;;;;5076619;28;20021;-79
2021/07/29 08:47:36;;;;;;;8.00;1.70;;;20.30;65.80;;;;;;5076377;28;20029;-79
2021/07/29 08:50:07;;;;;;;9.40;2.10;;;20.30;64.90;;;;;;5076474;28;20086;-79
2021/07/29 08:52:33;;;;;;;12.35;2.05;;;20.30;65.30;;;;;;5074824;28;20373;-79
2021/07/29 08:54:59;;;;;;;12.30;2.13;;;20.50;65.70;;;;;;5076360;28;20044;-79
2021/07/29 08:57:31;;;;;;;11.00;2.33;;;20.80;64.70;;;;;;5076003;28;20032;-79
2021/07/29 09:00:00;;;;;;;9.55;2.10;;;20.90;63.90;;;;;;5075975;28;20397;-79
2021/07/29 09:02:27;;;;;;;8.77;2.33;;;20.80;64.80;;;;;;5074946;28;20040;-79
2021/07/29 09:05:11;;;;;;;6.20;1.90;;;20.80;64.80;;;;;;5074711;28;20032;-79
2021/07/29 09:07:38;;;;;;;10.55;2.10;;;20.70;64.90;;;;;;5076099;28;20038;-79
2021/07/29 09:10:17;;;;;;;10.02;2.00;;;20.60;64.50;;;;;;5074602;28;20116;-79
2021/07/29 09:12:43;;;;;;;8.45;2.00;;;20.60;64.20;;;;;;5075772;28;20094;-79
2021/07/29 09:15:19;;;;;;;8.57;1.92;;;20.50;64.40;;;;;;5075732;28;20032;-79
2021/07/29 09:17:45;;;;;;;6.15;1.92;;;20.50;63.80;;;;;;5075788;28;20025;-79
2021/07/29 09:20:21;;;;;;;8.43;2.10;;;20.40;64.00;;;;;;5074653;28;20036;-79
2021/07/29 09:22:52;;;;;;;8.68;2.13;;;20.50;63.30;;;;;;5075452;28;20028;-79
2021/07/29 09:25:20;;;;;;;7.43;1.70;;;20.70;62.50;;;;;;5075582;28;20358;-79
2021/07/29 09:27:48;;;;;;;7.38;2.30;;;20.80;62.10;;;;;;5074514;28;20568;-79
2021/07/29 09:30:25;;;;;;;6.47;1.83;;;20.90;63.00;;;;;;5074171;28;20532;-79
2021/07/29 09:33:04;;;;;;;12.15;2.33;;;21.30;62.30;;;;;;5075419;28;20389;-79
2021/07/29 09:35:30;;;;;;;7.47;1.98;;;21.60;62.00;;;;;;5075361;28;20029;-79
2021/07/29 09:37:55;;;;;;;7.13;1.85;;;21.90;60.50;;;;;;5075242;28;20031;-79
2021/07/29 09:40:21;;;;;;;9.05;2.05;;;22.20;61.10;;;;;;5073765;28;20036;-79
2021/07/29 09:43:12;;;;;;;6.78;1.90;;;22.50;60.60;;;;;;5073907;28;20036;-79
2021/07/29 09:45:38;;;;;;;5.30;1.90;;;22.70;58.30;;;;;;5073185;28;20108;-79
2021/07/29 09:48:06;;;;;;;9.10;2.17;;;22.80;57.90;;;;;;5074803;28;20078;-79
2021/07/29 09:50:37;;;;;;;10.82;2.20;;;23.00;57.40;;;;;;5075016;28;20039;-79
2021/07/29 09:53:03;;;;;;;8.80;2.33;;;23.20;57.90;;;;;;5073614;28;20173;-79
2021/07/29 09:55:30;;;;;;;11.38;2.17;;;23.30;55.90;;;;;;5073780;28;20024;-79
2021/07/29 09:57:56;;;;;;;9.23;2.00;;;23.40;56.40;;;;;;5074932;28;20062;-79
2021/07/29 10:00:21;;;;;;;5.85;1.80;;;23.40;54.80;;;;;;5074530;28;20045;-79
2021/07/29 10:02:48;;;;;;;8.65;1.80;;;23.60;54.50;;;;;;5075047;28;20523;-79
2021/07/29 10:05:28;;;;;;;8.63;2.08;;;23.50;53.80;;;;;;5075157;28;20466;-79
2021/07/29 10:07:57;;;;;;;9.45;2.30;;;23.50;54.50;;;;;;5074370;28;20021;-79
2021/07/29 10:10:25;;;;;;;;;;;23.30;55.20;;;;;;5075066;28;20030;-79
2021/07/29 10:12:52;;;;;;;6.95;2.13;;;23.20;55.10;;;;;;5057158;28;19909;-79
2021/07/29 10:15:37;;;;;;;11.90;2.30;;;22.90;55.50;;;;;;5074772;28;20037;-79
2021/07/29 10:18:03;;;;;;;4.85;1.40;;;22.60;55.20;;;;;;5074722;28;20028;-79
2021/07/29 10:20:32;;;;;;;5.78;1.85;;;22.50;55.00;;;;;;5074434;28;20481;-79
2021/07/29 10:23:13;;;;;;;9.43;2.00;;;22.40;55.20;;;;;;5073066;28;20354;-79
2021/07/29 10:25:58;;;;;;;5.82;2.03;;;22.20;55.10;;;;;;5073002;28;20055;-79
2021/07/29 10:28:35;;;;;;;8.00;2.15;;;22.00;56.30;;;;;;5073047;28;20028;-79
2021/07/29 10:31:02;;;;;;;7.97;1.92;;;22.20;57.30;;;;;;5074361;28;20027;-79
2021/07/29 10:33:29;;;;;;;8.35;1.98;;;22.40;57.00;;;;;;5074262;28;20032;-79
2021/07/29 10:35:56;;;;;;;8.68;1.90;;;22.50;57.20;;;;;;5074117;28;20485;-79
2021/07/29 10:38:44;;;;;;;6.45;2.00;;;22.60;55.90;;;;;;5074473;28;20036;-79
2021/07/29 10:41:09;;;;;;;14.23;2.10;;;22.50;55.90;;;;;;5073997;28;20032;-79
2021/07/29 10:43:39;;;;;;;7.63;2.00;;;22.30;55.10;;;;;;5089558;28;20028;-79
2021/07/29 10:46:05;;;;;;;11.55;2.10;;;22.00;55.80;;;;;;5073827;28;20044;-79
2021/07/29 10:48:47;;;;;;;8.52;1.90;;;21.90;58.00;;;;;;5073679;28;20491;-79
2021/07/29 10:51:21;;;;;;;4.85;1.75;;;22.20;58.10;;;;;;5073352;28;20035;-79
2021/07/29 10:53:48;;;;;;;7.82;1.70;;;22.30;57.60;;;;;;5073704;28;20118;-79
2021/07/29 10:56:16;;;;;;;8.02;2.10;;;22.20;56.00;;;;;;5072751;28;20361;-79
2021/07/29 10:58:49;;;;;;;8.57;1.88;;;22.10;56.50;;;;;;5073490;28;20477;-79
2021/07/29 11:01:16;;;;;;;7.72;1.80;;;22.20;56.70;;;;;;5072711;28;20117;-79
2021/07/29 11:03:54;;;;;;;8.95;1.88;;;22.30;57.10;;;;;;5072663;28;20054;-79
2021/07/29 11:06:36;;;;;;;6.00;2.03;;;22.60;55.80;;;;;;5053446;28;20013;-79
2021/07/29 11:09:14;;;;;;;7.03;1.90;;;22.60;56.00;;;;;;5053625;28;20017;-79
2021/07/29 11:11:42;;;;;;;5.60;1.98;;;22.60;55.80;;;;;;5088014;28;20035;-80
2021/07/29 11:14:08;;;;;;;5.65;1.52;;;22.70;57.00;;;;;;5093816;28;20126;-80
2021/07/29 11:16:34;;;;;;;7.50;1.70;;;22.90;55.50;;;;;;5092392;28;20059;-80
2021/07/29 11:19:02;;;;;;;4.25;1.58;;;23.20;55.50;;;;;;5092809;28;20032;-80
2021/07/29 11:21:28;;;;;;;8.82;1.70;;;23.30;53.80;;;;;;5092276;28;20385;-79
2021/07/29 11:23:53;;;;;;;9.13;1.88;;;23.10;53.50;;;;;;5064787;28;20029;-79
2021/07/29 11:26:19;;;;;;;7.03;2.05;;;22.90;54.20;;;;;;5072016;28;20043;-80
2021/07/29 11:29:10;;;;;;;7.18;2.10;;;22.70;55.10;;;;;;5072141;28;20097;-79
2021/07/29 11:31:38;;;;;;;5.13;1.90;;;22.60;55.00;;;;;;5072860;28;20040;-79
2021/07/29 11:34:04;;;;;;;13.90;1.83;;;22.60;55.80;;;;;;5073271;28;20027;-79
2021/07/29 11:36:30;;;;;;;8.35;1.98;;;22.70;56.10;;;;;;5071889;28;20262;-79
2021/07/29 11:39:01;;;;;;;7.75;2.08;;;22.70;56.30;;;;;;5073246;28;20028;-79
2021/07/29 11:41:31;;;;;;;8.18;1.77;;;22.80;56.10;;;;;;5072892;28;20116;-79
2021/07/29 11:44:03;;;;;;;4.15;1.48;;;23.00;55.10;;;;;;5073001;28;20029;-79
2021/07/29 11:46:29;;;;;;;7.35;1.90;;;23.20;54.90;;;;;;5071870;28;20504;-79
2021/07/29 11:49:07;;;;;;;7.20;1.70;;;23.30;55.10;;;;;;5072058;28;20032;-79
2021/07/29 11:51:34;;;;;;;7.68;1.67;;;23.30;53.10;;;;;;5071820;28;20037;-79
2021/07/29 11:53:59;;;;;;;9.35;1.80;;;23.30;53.10;;;;;;5071838;28;20489;-79
2021/07/29 11:56:26;;;;;;;7.30;1.70;;;23.30;52.90;;;;;;5072685;28;20169;-79
2021/07/29 11:59:01;;;;;;;7.80;1.75;;;23.20;53.50;;;;;;5076980;28;20111;-79
2021/07/29 12:01:27;;;;;;;6.43;1.70;;;23.10;53.50;;;;;;5091517;28;20055;-79
2021/07/29 12:03:58;;;;;;;6.50;1.80;;;23.00;52.60;;;;;;5090296;28;20024;-80
2021/07/29 12:06:25;;;;;;;8.60;1.90;;;23.20;53.00;;;;;;5071288;28;20036;-79
2021/07/29 12:08:52;;;;;;;9.40;2.03;;;23.20;54.00;;;;;;5072874;28;20162;-80
2021/07/29 12:11:20;;;;;;;6.05;1.50;;;23.30;53.00;;;;;;5076582;28;20504;-79
2021/07/29 12:13:46;;;;;;;8.43;1.77;;;23.30;53.10;;;;;;5075668;28;20054;-79
2021/07/29 12:16:15;;;;;;;6.57;1.73;;;23.40;52.10;;;;;;5075604;28;20032;-79
2021/07/29 12:18:41;;;;;;;8.20;1.50;;;23.30;52.70;;;;;;5076953;28;20047;-79
2021/07/29 12:21:06;;;;;;;6.00;1.85;;;23.30;52.40;;;;;;5076937;28;20029;-80
2021/07/29 12:23:32;;;;;;;8.65;2.20;;;23.50;52.20;;;;;;5076712;28;20048;-80
2021/07/29 12:26:14;;;;;;;6.38;1.90;;;23.70;53.50;;;;;;5076777;28;20025;-80
2021/07/29 12:28:45;;;;;;;7.47;1.60;;;24.00;51.90;;;;;;5076705;28;20021;-79
2021/07/29 12:31:17;;;;;;;7.47;2.05;;;24.10;50.30;;;;;;5075144;28;20025;-79
2021/07/29 12:33:49;;;;;;;5.28;1.80;;;24.20;50.40;;;;;;5075033;28;20439;-79
2021/07/29 12:36:15;;;;;;;8.48;1.90;;;24.30;51.10;;;;;;5076386;28;20023;-75
2021/07/29 12:38:40;;;;;;;6.32;1.60;;;24.40;50.80;;;;;;5075394;28;20108;-75
2021/07/29 12:41:06;;;;;;;6.90;1.70;;;24.50;50.00;;;;;;5073867;28;20031;-76
2021/07/29 12:43:34;;;;;;;5.30;1.65;;;24.60;50.40;;;;;;5074878;28;20024;-76
2021/07/29 12:46:02;;;;;;;4.70;1.63;;;24.60;50.30;;;;;;5074890;28;20647;-75
2021/07/29 12:48:29;;;;;;;3.97;1.63;;;24.40;49.20;;;;;;5074945;28;20025;-76